Time;durP1;ratioP1;P1;durP2;ratioP2;P2;SDS_P1;SDS_P2;PMS_P1;PMS_P2;Temp;Humidity;BMP_temperature;BMP_pressure;BME280_temperature;BME280_humidity;BME280_pressure;Samples;Min_cycle;Max_cycle;Signal;HPM_P1;HPM_P2
2022/09/17 00:00:58;;;;;;;0.10;0.10;;;;;;;;;;4991671;28;20125;-90
2022/09/17 00:03:25;;;;;;;0.10;0.10;;;;;;;;;;4976001;28;20109;-89
2022/09/17 00:05:58;;;;;;;0.10;0.10;;;;;;;;;;4976063;28;20125;-89
2022/09/17 00:08:24;;;;;;;0.10;0.10;;;;;;;;;;4992089;28;20082;-87
2022/09/17 00:10:50;;;;;;;0.10;0.10;;;;;;;;;;4991752;28;20501;-88
2022/09/17 00:13:16;;;;;;;0.10;0.10;;;;;;;;;;4975439;28;20046;-89
2022/09/17 00:15:43;;;;;;;0.10;0.10;;;;;;;;;;4991620;28;20054;-88
2022/09/17 00:18:09;;;;;;;0.10;0.10;;;;;;;;;;4991710;28;20485;-88
2022/09/17 00:20:38;;;;;;;0.10;0.10;;;;;;;;;;4991614;28;20157;-89
2022/09/17 00:23:04;;;;;;;0.10;0.10;;;;;;;;;;4991663;28;20045;-87
2022/09/17 00:25:30;;;;;;;0.10;0.10;;;;;;;;;;4991510;28;20043;-88
2022/09/17 00:27:56;;;;;;;0.10;0.10;;;;;;;;;;4991523;28;20035;-87
2022/09/17 00:30:22;;;;;;;0.10;0.10;;;;;;;;;;4991474;28;20073;-89
2022/09/17 00:32:48;;;;;;;0.10;0.10;;;;;;;;;;4975324;28;20034;-88
2022/09/17 00:35:14;;;;;;;0.10;0.10;;;;;;;;;;4975288;28;20121;-88
2022/09/17 00:37:40;;;;;;;0.40;0.40;;;;;;;;;;4975487;28;20046;-88
2022/09/17 00:40:07;;;;;;;0.10;0.10;;;;;;;;;;4991523;28;20046;-88
2022/09/17 00:42:33;;;;;;;0.10;0.10;;;;;;;;;;4975245;28;20042;-88
2022/09/17 00:44:59;;;;;;;0.10;0.10;;;;;;;;;;4991246;28;20045;-88
2022/09/17 00:47:36;;;;;;;0.10;0.10;;;;;;;;;;4991552;28;20046;-88
2022/09/17 00:50:04;;;;;;;0.20;0.20;;;;;;;;;;4975201;28;20043;-88
2022/09/17 00:52:31;;;;;;;0.10;0.10;;;;;;;;;;4975151;28;20053;-88
2022/09/17 00:55:00;;;;;;;0.10;0.10;;;;;;;;;;4975360;28;20097;-87
2022/09/17 00:57:26;;;;;;;0.10;0.10;;;;;;;;;;4975107;28;20053;-87
2022/09/17 00:59:52;;;;;;;0.10;0.10;;;;;;;;;;4991353;28;20043;-88
2022/09/17 01:02:18;;;;;;;0.10;0.10;;;;;;;;;;4991237;28;20552;-87
2022/09/17 01:04:44;;;;;;;0.10;0.10;;;;;;;;;;4991263;28;20042;-87
2022/09/17 01:07:16;;;;;;;0.10;0.10;;;;;;;;;;4991132;28;20042;-88
2022/09/17 01:09:42;;;;;;;0.10;0.10;;;;;;;;;;4991279;28;20481;-88
2022/09/17 01:12:27;;;;;;;0.10;0.10;;;;;;;;;;4991024;28;20157;-88
2022/09/17 01:15:00;;;;;;;0.10;0.10;;;;;;;;;;4991230;28;20041;-88
2022/09/17 01:17:26;;;;;;;;;;;;;;;;;;4991726;28;20389;-88
2022/09/17 01:20:01;;;;;;;0.10;0.10;;;;;;;;;;4991919;28;19918;-88
2022/09/17 01:22:47;;;;;;;0.10;0.10;;;;;;;;;;4978424;28;20038;-88
2022/09/17 01:25:21;;;;;;;0.10;0.10;;;;;;;;;;4994145;28;20108;-88
2022/09/17 01:27:47;;;;;;;0.10;0.10;;;;;;;;;;4978746;28;20478;-87
2022/09/17 01:30:26;;;;;;;0.10;0.10;;;;;;;;;;4994406;28;20038;-88
2022/09/17 01:32:53;;;;;;;0.10;0.10;;;;;;;;;;4978182;28;20042;-88
2022/09/17 01:35:42;;;;;;;0.10;0.10;;;;;;;;;;4994506;28;20076;-87
2022/09/17 01:38:16;;;;;;;0.10;0.10;;;;;;;;;;4994764;28;20046;-88
2022/09/17 01:40:47;;;;;;;0.10;0.10;;;;;;;;;;4978004;28;20049;-87
2022/09/17 01:43:34;;;;;;;0.10;0.10;;;;;;;;;;4994359;28;20042;-88
2022/09/17 01:46:03;;;;;;;0.10;0.10;;;;;;;;;;4994551;28;20334;-89
2022/09/17 01:48:32;;;;;;;0.10;0.10;;;;;;;;;;4994418;28;20078;-87
2022/09/17 01:50:59;;;;;;;0.10;0.10;;;;;;;;;;4994382;28;20043;-88
2022/09/17 01:53:28;;;;;;;0.10;0.10;;;;;;;;;;4994263;28;20038;-88
2022/09/17 01:55:53;;;;;;;0.10;0.10;;;;;;;;;;4994132;28;20042;-88
2022/09/17 01:58:26;;;;;;;0.13;0.13;;;;;;;;;;4977664;28;20397;-88
2022/09/17 02:00:54;;;;;;;0.20;0.20;;;;;;;;;;4993970;28;20050;-87
2022/09/17 02:03:37;;;;;;;0.40;0.40;;;;;;;;;;4977885;28;20045;-91
2022/09/17 02:06:08;;;;;;;0.10;0.10;;;;;;;;;;4977897;28;20204;-87
2022/09/17 02:08:43;;;;;;;0.10;0.10;;;;;;;;;;4977783;28;20484;-87
2022/09/17 02:11:10;;;;;;;0.10;0.10;;;;;;;;;;4993828;28;20382;-88
2022/09/17 02:13:36;;;;;;;0.10;0.10;;;;;;;;;;4993860;28;20090;-89
2022/09/17 02:16:07;;;;;;;0.10;0.10;;;;;;;;;;4977346;28;20136;-89
2022/09/17 02:18:42;;;;;;;0.10;0.10;;;;;;;;;;4977391;28;20052;-89
2022/09/17 02:21:11;;;;;;;0.25;0.25;;;;;;;;;;4993539;28;20046;-89
2022/09/17 02:23:41;;;;;;;0.10;0.10;;;;;;;;;;4977478;28;20504;-88
2022/09/17 02:26:08;;;;;;;0.10;0.10;;;;;;;;;;4993593;28;20057;-88
2022/09/17 02:28:40;;;;;;;0.10;0.10;;;;;;;;;;4993511;28;20046;-88
2022/09/17 02:31:06;;;;;;;0.10;0.10;;;;;;;;;;4992507;28;20054;-88
2022/09/17 02:33:32;;;;;;;0.10;0.10;;;;;;;;;;4976910;28;20046;-88
2022/09/17 02:35:58;;;;;;;0.10;0.10;;;;;;;;;;4993474;28;20058;-88
2022/09/17 02:38:25;;;;;;;0.20;0.20;;;;;;;;;;4993356;28;20046;-88
2022/09/17 02:40:53;;;;;;;0.10;0.10;;;;;;;;;;4993232;28;20106;-88
2022/09/17 02:43:33;;;;;;;0.10;0.10;;;;;;;;;;4977333;28;20473;-88
2022/09/17 02:46:12;;;;;;;0.10;0.10;;;;;;;;;;4977160;28;20406;-88
2022/09/17 02:48:38;;;;;;;0.10;0.10;;;;;;;;;;4993056;28;20038;-87
2022/09/17 02:51:07;;;;;;;0.10;0.10;;;;;;;;;;4992955;28;20034;-89
2022/09/17 02:53:39;;;;;;;0.10;0.10;;;;;;;;;;4976746;28;20049;-89
2022/09/17 02:56:32;;;;;;;0.10;0.10;;;;;;;;;;4976825;28;20437;-88
2022/09/17 02:59:04;;;;;;;0.10;0.10;;;;;;;;;;4968723;28;20084;-88
2022/09/17 03:01:36;;;;;;;0.10;0.10;;;;;;;;;;4992801;28;20053;-88
2022/09/17 03:04:03;;;;;;;0.10;0.10;;;;;;;;;;4992934;28;20056;-89
2022/09/17 03:06:29;;;;;;;0.10;0.10;;;;;;;;;;4992784;28;20043;-88
2022/09/17 03:08:56;;;;;;;0.10;0.10;;;;;;;;;;4993021;28;20041;-89
2022/09/17 03:11:22;;;;;;;0.10;0.10;;;;;;;;;;4976465;28;20520;-88
2022/09/17 03:13:48;;;;;;;0.10;0.10;;;;;;;;;;4992589;28;20042;-88
2022/09/17 03:16:14;;;;;;;0.30;0.10;;;;;;;;;;4976299;28;20050;-88
2022/09/17 03:18:40;;;;;;;0.10;0.10;;;;;;;;;;4976322;28;20533;-88
2022/09/17 03:21:06;;;;;;;0.10;0.10;;;;;;;;;;4992281;28;20046;-88
2022/09/17 03:23:32;;;;;;;0.10;0.10;;;;;;;;;;4976596;28;20035;-88
2022/09/17 03:25:58;;;;;;;0.10;0.10;;;;;;;;;;4976192;28;20038;-88
2022/09/17 03:28:25;;;;;;;0.10;0.10;;;;;;;;;;4992669;28;20042;-88
2022/09/17 03:30:51;;;;;;;0.10;0.10;;;;;;;;;;4976005;28;20080;-88
2022/09/17 03:33:17;;;;;;;0.10;0.10;;;;;;;;;;4992497;28;20078;-89
2022/09/17 03:35:43;;;;;;;0.10;0.10;;;;;;;;;;4992084;28;20062;-88
2022/09/17 03:38:09;;;;;;;0.10;0.10;;;;;;;;;;4992298;28;20054;-89
2022/09/17 03:40:35;;;;;;;0.10;0.10;;;;;;;;;;4976192;28;20042;-89
2022/09/17 03:43:01;;;;;;;0.10;0.10;;;;;;;;;;4975738;28;20513;-88
2022/09/17 03:45:27;;;;;;;0.10;0.10;;;;;;;;;;4975779;28;20077;-89
2022/09/17 03:47:54;;;;;;;0.10;0.10;;;;;;;;;;4992053;28;20045;-88
2022/09/17 03:50:20;;;;;;;0.10;0.10;;;;;;;;;;4992017;28;20132;-89
2022/09/17 03:52:46;;;;;;;0.10;0.10;;;;;;;;;;4992274;28;20125;-89
2022/09/17 03:55:12;;;;;;;0.10;0.10;;;;;;;;;;4991907;28;20489;-89
2022/09/17 03:57:38;;;;;;;0.10;0.10;;;;;;;;;;4976028;28;20042;-89
2022/09/17 04:00:05;;;;;;;0.25;0.25;;;;;;;;;;4975953;28;20129;-89
2022/09/17 04:02:31;;;;;;;0.10;0.10;;;;;;;;;;4991814;28;20078;-88
2022/09/17 04:04:57;;;;;;;0.10;0.10;;;;;;;;;;4991796;28;20081;-88
2022/09/17 04:07:23;;;;;;;0.10;0.10;;;;;;;;;;4991771;28;20065;-88
2022/09/17 04:09:49;;;;;;;0.10;0.10;;;;;;;;;;4991590;28;20069;-88
2022/09/17 04:12:15;;;;;;;0.10;0.10;;;;;;;;;;4975814;28;20129;-88
2022/09/17 04:14:41;;;;;;;0.10;0.10;;;;;;;;;;4991738;28;20049;-88
2022/09/17 04:17:07;;;;;;;0.10;0.10;;;;;;;;;;4975840;28;20043;-88
2022/09/17 04:19:33;;;;;;;0.10;0.10;;;;;;;;;;4975283;28;20038;-88
2022/09/17 04:21:59;;;;;;;0.10;0.10;;;;;;;;;;4991723;28;20061;-88
2022/09/17 04:24:25;;;;;;;0.10;0.10;;;;;;;;;;4975541;28;20050;-88
2022/09/17 04:26:51;;;;;;;0.10;0.10;;;;;;;;;;4991584;28;20073;-88
2022/09/17 04:29:17;;;;;;;0.10;0.10;;;;;;;;;;4991809;28;20053;-88
2022/09/17 04:31:43;;;;;;;0.10;0.10;;;;;;;;;;4991690;28;20470;-89
2022/09/17 04:34:09;;;;;;;0.10;0.10;;;;;;;;;;4975714;28;20386;-88
2022/09/17 04:36:35;;;;;;;0.10;0.10;;;;;;;;;;4991445;28;20054;-89
2022/09/17 04:39:01;;;;;;;0.10;0.10;;;;;;;;;;4991711;28;20049;-88
2022/09/17 04:41:26;;;;;;;0.10;0.10;;;;;;;;;;4975374;28;20178;-88
2022/09/17 04:43:52;;;;;;;0.10;0.10;;;;;;;;;;4991616;28;20138;-89
2022/09/17 04:46:19;;;;;;;0.10;0.10;;;;;;;;;;4991126;28;20551;-89
2022/09/17 04:48:45;;;;;;;0.10;0.10;;;;;;;;;;4975214;28;20117;-89
2022/09/17 04:51:11;;;;;;;0.10;0.10;;;;;;;;;;4991575;28;20081;-89
2022/09/17 04:53:37;;;;;;;0.10;0.10;;;;;;;;;;4991496;28;20046;-89
2022/09/17 04:56:03;;;;;;;0.10;0.10;;;;;;;;;;4978151;28;20034;-89
2022/09/17 04:58:30;;;;;;;0.15;0.15;;;;;;;;;;4979051;28;20177;-88
2022/09/17 05:00:56;;;;;;;0.10;0.10;;;;;;;;;;4995045;28;20042;-89
2022/09/17 05:03:22;;;;;;;1.52;1.50;;;;;;;;;;4995098;28;20042;-89
2022/09/17 05:05:48;;;;;;;0.10;0.10;;;;;;;;;;4995245;28;20085;-89
2022/09/17 05:08:14;;;;;;;0.10;0.10;;;;;;;;;;4995262;28;20528;-88
2022/09/17 05:10:39;;;;;;;0.10;0.10;;;;;;;;;;4979010;28;20038;-88
2022/09/17 05:13:05;;;;;;;0.10;0.10;;;;;;;;;;4995206;28;20043;-88
2022/09/17 05:15:31;;;;;;;0.10;0.10;;;;;;;;;;4978798;28;20052;-88
2022/09/17 05:17:57;;;;;;;0.10;0.10;;;;;;;;;;4994726;28;20046;-88
2022/09/17 05:20:23;;;;;;;0.10;0.10;;;;;;;;;;4978347;28;20048;-89
2022/09/17 05:22:50;;;;;;;0.10;0.10;;;;;;;;;;4994951;28;20042;-87
2022/09/17 05:25:17;;;;;;;0.10;0.10;;;;;;;;;;4994755;28;20088;-88
2022/09/17 05:27:43;;;;;;;0.10;0.10;;;;;;;;;;4994638;28;20045;-88
2022/09/17 05:30:10;;;;;;;0.10;0.10;;;;;;;;;;4994469;28;20046;-89
2022/09/17 05:32:36;;;;;;;0.10;0.10;;;;;;;;;;4994963;28;20406;-87
2022/09/17 05:35:03;;;;;;;0.10;0.10;;;;;;;;;;4994445;28;20057;-86
2022/09/17 05:37:29;;;;;;;0.10;0.10;;;;;;;;;;4994448;28;20046;-87
2022/09/17 05:39:55;;;;;;;0.10;0.10;;;;;;;;;;4994479;28;20049;-87
2022/09/17 05:42:21;;;;;;;0.10;0.10;;;;;;;;;;4978181;28;20043;-87
2022/09/17 05:44:46;;;;;;;0.10;0.10;;;;;;;;;;4994244;28;20167;-88
2022/09/17 05:47:12;;;;;;;0.20;0.20;;;;;;;;;;4994318;28;20045;-87
2022/09/17 05:49:38;;;;;;;0.10;0.10;;;;;;;;;;4994370;28;20097;-88
2022/09/17 05:52:04;;;;;;;0.20;0.20;;;;;;;;;;4977978;28;20116;-89
2022/09/17 05:54:30;;;;;;;0.10;0.10;;;;;;;;;;4978106;28;20038;-87
2022/09/17 05:56:56;;;;;;;0.20;0.20;;;;;;;;;;4994364;28;20057;-87
2022/09/17 05:59:22;;;;;;;0.10;0.10;;;;;;;;;;4977854;28;20096;-87
2022/09/17 06:01:49;;;;;;;0.10;0.10;;;;;;;;;;4994032;28;20371;-87
2022/09/17 06:04:16;;;;;;;0.10;0.10;;;;;;;;;;4994012;28;20493;-86
2022/09/17 06:06:42;;;;;;;0.10;0.10;;;;;;;;;;4977918;28;20401;-87
2022/09/17 06:09:09;;;;;;;0.10;0.10;;;;;;;;;;4993835;28;20042;-86
2022/09/17 06:11:35;;;;;;;0.10;0.10;;;;;;;;;;4993851;28;20053;-86
2022/09/17 06:14:01;;;;;;;0.10;0.10;;;;;;;;;;4993789;28;20038;-86
2022/09/17 06:16:27;;;;;;;0.10;0.10;;;;;;;;;;4993780;28;20141;-87
2022/09/17 06:18:53;;;;;;;0.10;0.10;;;;;;;;;;4993936;28;20081;-88
2022/09/17 06:21:21;;;;;;;0.17;0.17;;;;;;;;;;4993723;28;20046;-86
2022/09/17 06:23:47;;;;;;;0.10;0.10;;;;;;;;;;4994101;28;20413;-86
2022/09/17 06:26:13;;;;;;;0.10;0.10;;;;;;;;;;4993529;28;20042;-86
2022/09/17 06:28:39;;;;;;;0.10;0.10;;;;;;;;;;4977313;28;20034;-88
2022/09/17 06:31:06;;;;;;;0.10;0.10;;;;;;;;;;4977175;28;20500;-87
2022/09/17 06:33:32;;;;;;;0.10;0.10;;;;;;;;;;4977532;28;20448;-86
2022/09/17 06:35:59;;;;;;;0.10;0.10;;;;;;;;;;4993338;28;20065;-87
2022/09/17 06:38:26;;;;;;;0.10;0.10;;;;;;;;;;4977627;28;20397;-86
2022/09/17 06:40:52;;;;;;;0.10;0.10;;;;;;;;;;4993212;28;20046;-87
2022/09/17 06:43:18;;;;;;;0.10;0.10;;;;;;;;;;4977147;28;20046;-90
2022/09/17 06:45:44;;;;;;;0.10;0.10;;;;;;;;;;4993254;28;20045;-89
2022/09/17 06:48:10;;;;;;;0.10;0.10;;;;;;;;;;4977235;28;20046;-89
2022/09/17 06:50:36;;;;;;;0.08;0.08;;;;;;;;;;4976846;28;20085;-86
2022/09/17 06:53:02;;;;;;;0.10;0.10;;;;;;;;;;4976806;28;20453;-87
2022/09/17 06:55:28;;;;;;;0.10;0.10;;;;;;;;;;4976799;28;20069;-87
2022/09/17 06:57:54;;;;;;;0.10;0.10;;;;;;;;;;4976815;28;20046;-88
2022/09/17 07:00:20;;;;;;;0.10;0.10;;;;;;;;;;4992737;28;20441;-88
2022/09/17 07:02:59;;;;;;;0.10;0.10;;;;;;;;;;4993386;28;20043;-89
2022/09/17 07:05:25;;;;;;;0.10;0.10;;;;;;;;;;4976589;28;20565;-88
2022/09/17 07:07:51;;;;;;;0.10;0.10;;;;;;;;;;4976669;28;20040;-88
2022/09/17 07:10:17;;;;;;;0.10;0.10;;;;;;;;;;4993093;28;20060;-87
2022/09/17 07:12:43;;;;;;;0.10;0.10;;;;;;;;;;4993567;28;20458;-89
2022/09/17 07:15:10;;;;;;;0.10;0.10;;;;;;;;;;4995725;28;20030;-88
2022/09/17 07:17:39;;;;;;;3.20;0.20;;;;;;;;;;4995465;28;20110;-88
2022/09/17 07:20:05;;;;;;;0.10;0.10;;;;;;;;;;4979030;28;20393;-87
2022/09/17 07:22:31;;;;;;;0.63;0.63;;;;;;;;;;4994987;28;20505;-90
2022/09/17 07:24:57;;;;;;;0.10;0.10;;;;;;;;;;4980938;28;20055;-89
2022/09/17 07:27:23;;;;;;;0.10;0.10;;;;;;;;;;5013526;28;20034;-91
2022/09/17 07:29:49;;;;;;;0.10;0.10;;;;;;;;;;5017277;28;20089;-91
2022/09/17 07:32:15;;;;;;;0.10;0.10;;;;;;;;;;5017964;28;20038;-90
2022/09/17 07:34:41;;;;;;;0.25;0.25;;;;;;;;;;5002384;28;20041;-91
2022/09/17 07:37:07;;;;;;;0.10;0.10;;;;;;;;;;4985907;28;20046;-91
2022/09/17 07:39:36;;;;;;;0.10;0.10;;;;;;;;;;4979564;28;20384;-93
2022/09/17 07:42:03;;;;;;;0.10;0.10;;;;;;;;;;4996165;28;20058;-93
2022/09/17 07:44:29;;;;;;;0.10;0.10;;;;;;;;;;4979615;28;20099;-93
2022/09/17 07:46:55;;;;;;;0.22;0.20;;;;;;;;;;4979537;28;20081;-94
2022/09/17 07:49:21;;;;;;;0.10;0.10;;;;;;;;;;4995528;28;20496;-92
2022/09/17 07:51:47;;;;;;;0.10;0.10;;;;;;;;;;4995288;28;20038;-88
2022/09/17 07:54:13;;;;;;;0.10;0.10;;;;;;;;;;4995516;28;20071;-87
2022/09/17 07:56:39;;;;;;;0.10;0.10;;;;;;;;;;4995160;28;20092;-86
2022/09/17 07:59:05;;;;;;;0.10;0.10;;;;;;;;;;4995405;28;20495;-86
2022/09/17 08:01:33;;;;;;;0.10;0.10;;;;;;;;;;4995018;28;20103;-86
2022/09/17 08:03:59;;;;;;;0.10;0.10;;;;;;;;;;4995322;28;20050;-87
2022/09/17 08:06:26;;;;;;;0.10;0.10;;;;;;;;;;4978742;28;20497;-88
2022/09/17 08:08:52;;;;;;;0.10;0.10;;;;;;;;;;4994872;28;20038;-87
2022/09/17 08:11:19;;;;;;;0.10;0.10;;;;;;;;;;4995183;28;20048;-88
2022/09/17 08:13:50;;;;;;;0.10;0.10;;;;;;;;;;4995268;28;20042;-87
2022/09/17 08:16:16;;;;;;;0.20;0.20;;;;;;;;;;4994869;28;20084;-86
2022/09/17 08:18:42;;;;;;;0.10;0.10;;;;;;;;;;4994974;28;20243;-85
2022/09/17 08:21:09;;;;;;;0.10;0.10;;;;;;;;;;4994754;28;20552;-85
2022/09/17 08:23:36;;;;;;;0.10;0.10;;;;;;;;;;4978437;28;20041;-85
2022/09/17 08:26:02;;;;;;;0.10;0.10;;;;;;;;;;4994788;28;20469;-87
2022/09/17 08:28:28;;;;;;;0.25;0.20;;;;;;;;;;4994900;28;20120;-90
2022/09/17 08:30:55;;;;;;;0.10;0.10;;;;;;;;;;4997924;28;20060;-92
2022/09/17 08:33:20;;;;;;;0.10;0.10;;;;;;;;;;4982542;28;20053;-88
2022/09/17 08:35:53;;;;;;;0.10;0.10;;;;;;;;;;4998885;28;20058;-88
2022/09/17 08:38:19;;;;;;;0.10;0.10;;;;;;;;;;5000851;28;20555;-87
2022/09/17 08:40:57;;;;;;;0.10;0.10;;;;;;;;;;4985993;28;20041;-87
2022/09/17 08:43:23;;;;;;;0.10;0.10;;;;;;;;;;5019821;28;20086;-87
2022/09/17 08:45:54;;;;;;;0.10;0.10;;;;;;;;;;5008060;28;20042;-86
2022/09/17 08:48:20;;;;;;;0.10;0.10;;;;;;;;;;5022563;28;20041;-87
2022/09/17 08:50:46;;;;;;;0.10;0.10;;;;;;;;;;5038146;28;20051;-86
2022/09/17 08:53:22;;;;;;;0.10;0.10;;;;;;;;;;5021650;28;20059;-87
2022/09/17 08:56:11;;;;;;;0.10;0.10;;;;;;;;;;5038000;28;20041;-88
2022/09/17 08:58:56;;;;;;;0.10;0.10;;;;;;;;;;5016230;28;20092;-88
2022/09/17 09:01:27;;;;;;;0.10;0.10;;;;;;;;;;5021208;28;20052;-88
2022/09/17 09:04:02;;;;;;;1.15;1.15;;;;;;;;;;5037783;28;20098;-88
2022/09/17 09:06:29;;;;;;;0.10;0.10;;;;;;;;;;5021028;28;20056;-88
2022/09/17 09:09:15;;;;;;;0.10;0.10;;;;;;;;;;5025106;28;20100;-88
2022/09/17 09:11:41;;;;;;;0.10;0.10;;;;;;;;;;4981723;28;20137;-88
2022/09/17 09:14:11;;;;;;;0.10;0.10;;;;;;;;;;4998042;28;20460;-87
2022/09/17 09:16:38;;;;;;;0.10;0.10;;;;;;;;;;4998187;28;20056;-88
2022/09/17 09:19:10;;;;;;;0.10;0.10;;;;;;;;;;4982028;28;20509;-88
2022/09/17 09:22:03;;;;;;;0.10;0.10;;;;;;;;;;4981702;28;20053;-87
2022/09/17 09:24:32;;;;;;;0.10;0.10;;;;;;;;;;4995049;28;20046;-88
2022/09/17 09:27:19;;;;;;;0.10;0.10;;;;;;;;;;4997816;28;20080;-88
2022/09/17 09:29:48;;;;;;;0.10;0.10;;;;;;;;;;4981422;28;20038;-87
2022/09/17 09:32:29;;;;;;;0.10;0.10;;;;;;;;;;4988944;28;20240;-90
2022/09/17 09:34:55;;;;;;;0.20;0.20;;;;;;;;;;5020605;28;20056;-90
2022/09/17 09:37:23;;;;;;;0.13;0.13;;;;;;;;;;5037830;28;20081;-88
2022/09/17 09:39:50;;;;;;;0.10;0.10;;;;;;;;;;5020969;28;20037;-87
2022/09/17 09:42:19;;;;;;;0.10;0.10;;;;;;;;;;5020110;28;20446;-87
2022/09/17 09:44:45;;;;;;;0.10;0.10;;;;;;;;;;5036925;28;20480;-88
2022/09/17 09:47:14;;;;;;;0.10;0.10;;;;;;;;;;5036955;28;20047;-88
2022/09/17 09:49:43;;;;;;;0.10;0.10;;;;;;;;;;5037109;28;20049;-88
2022/09/17 09:52:16;;;;;;;0.10;0.10;;;;;;;;;;5020437;28;20052;-88
2022/09/17 09:54:48;;;;;;;0.10;0.10;;;;;;;;;;5019918;28;20041;-87
2022/09/17 09:57:18;;;;;;;0.10;0.10;;;;;;;;;;5016580;28;20037;-87
2022/09/17 09:59:45;;;;;;;0.10;0.10;;;;;;;;;;5017296;28;20041;-87
2022/09/17 10:02:11;;;;;;;0.10;0.10;;;;;;;;;;5016780;28;20045;-87
2022/09/17 10:04:37;;;;;;;0.10;0.10;;;;;;;;;;5016847;28;20044;-88
2022/09/17 10:07:07;;;;;;;0.10;0.10;;;;;;;;;;5016497;28;20091;-87
2022/09/17 10:09:35;;;;;;;0.13;0.13;;;;;;;;;;5016750;28;20059;-88
2022/09/17 10:12:05;;;;;;;0.10;0.10;;;;;;;;;;5001776;28;20393;-89
2022/09/17 10:14:32;;;;;;;0.10;0.10;;;;;;;;;;5016667;28;20040;-88
2022/09/17 10:17:15;;;;;;;0.10;0.10;;;;;;;;;;5000284;28;20091;-88
2022/09/17 10:19:42;;;;;;;0.10;0.10;;;;;;;;;;5000138;28;20052;-89
2022/09/17 10:22:26;;;;;;;0.10;0.10;;;;;;;;;;5000140;28;20051;-88
2022/09/17 10:24:53;;;;;;;0.20;0.20;;;;;;;;;;5002653;28;20060;-89
2022/09/17 10:27:19;;;;;;;0.17;0.17;;;;;;;;;;5036179;28;20041;-88
2022/09/17 10:29:45;;;;;;;0.10;0.10;;;;;;;;;;5019564;28;20036;-87
2022/09/17 10:32:15;;;;;;;0.10;0.10;;;;;;;;;;5036141;28;20782;-86
2022/09/17 10:34:41;;;;;;;0.10;0.10;;;;;;;;;;5019903;28;20430;-88
2022/09/17 10:37:14;;;;;;;0.10;0.10;;;;;;;;;;5035985;28;20052;-87
2022/09/17 10:39:47;;;;;;;0.10;0.10;;;;;;;;;;5036004;28;20411;-87
2022/09/17 10:42:14;;;;;;;0.25;0.25;;;;;;;;;;5053609;28;20335;-87
2022/09/17 10:44:53;;;;;;;0.10;0.10;;;;;;;;;;5035665;28;20041;-87
2022/09/17 10:47:24;;;;;;;0.10;0.10;;;;;;;;;;5035882;28;20044;-86
2022/09/17 10:49:53;;;;;;;0.10;0.10;;;;;;;;;;5035886;28;20419;-85
2022/09/17 10:52:22;;;;;;;0.10;0.10;;;;;;;;;;5018358;28;20076;-88
2022/09/17 10:54:51;;;;;;;0.10;0.10;;;;;;;;;;5035555;28;20068;-86
2022/09/17 10:57:23;;;;;;;0.10;0.10;;;;;;;;;;5035413;28;20416;-85
2022/09/17 10:59:53;;;;;;;0.10;0.10;;;;;;;;;;5035607;28;20115;-86
2022/09/17 11:02:32;;;;;;;0.10;0.10;;;;;;;;;;5035461;28;20045;-88
2022/09/17 11:05:04;;;;;;;0.10;0.10;;;;;;;;;;5018820;28;20037;-88
2022/09/17 11:07:36;;;;;;;0.10;0.10;;;;;;;;;;5035210;28;20103;-86
2022/09/17 11:10:02;;;;;;;0.10;0.10;;;;;;;;;;5053125;28;20036;-87
2022/09/17 11:12:35;;;;;;;0.10;0.10;;;;;;;;;;5035169;28;20076;-87
2022/09/17 11:15:03;;;;;;;0.10;0.10;;;;;;;;;;5035585;28;20041;-87
2022/09/17 11:17:49;;;;;;;0.20;0.20;;;;;;;;;;5035236;28;20041;-87
2022/09/17 11:20:29;;;;;;;0.10;0.10;;;;;;;;;;5018187;28;20127;-87
2022/09/17 11:23:02;;;;;;;0.10;0.10;;;;;;;;;;5019081;28;20044;-88
2022/09/17 11:25:32;;;;;;;0.40;0.20;;;;;;;;;;5018602;28;20167;-87
2022/09/17 11:28:18;;;;;;;0.10;0.10;;;;;;;;;;5018576;28;20041;-89
2022/09/17 11:30:50;;;;;;;0.10;0.10;;;;;;;;;;5021183;28;20045;-87
2022/09/17 11:33:35;;;;;;;0.10;0.10;;;;;;;;;;5018673;28;20041;-87
2022/09/17 11:36:03;;;;;;;0.10;0.10;;;;;;;;;;5018106;28;20063;-87
2022/09/17 11:38:29;;;;;;;0.10;0.10;;;;;;;;;;5018415;28;20060;-87
2022/09/17 11:41:00;;;;;;;0.10;0.10;;;;;;;;;;5032614;28;20072;-88
2022/09/17 11:43:26;;;;;;;0.10;0.10;;;;;;;;;;4998055;28;20095;-88
2022/09/17 11:46:00;;;;;;;0.17;0.17;;;;;;;;;;5015131;28;20037;-89
2022/09/17 11:48:32;;;;;;;0.30;0.30;;;;;;;;;;5015167;28;20431;-87
2022/09/17 11:50:58;;;;;;;0.10;0.10;;;;;;;;;;4998500;28;20037;-88
2022/09/17 11:53:39;;;;;;;0.30;0.30;;;;;;;;;;5015118;28;20041;-87
2022/09/17 11:56:12;;;;;;;0.10;0.10;;;;;;;;;;4998467;28;20068;-87
2022/09/17 11:58:40;;;;;;;0.10;0.10;;;;;;;;;;4998466;28;20037;-87
2022/09/17 12:01:11;;;;;;;0.10;0.10;;;;;;;;;;5014751;28;20045;-87
2022/09/17 12:03:41;;;;;;;0.10;0.10;;;;;;;;;;4998196;28;20045;-86
2022/09/17 12:06:13;;;;;;;0.10;0.10;;;;;;;;;;5014692;28;20192;-87
2022/09/17 12:08:42;;;;;;;0.10;0.10;;;;;;;;;;5015146;28;20091;-87
2022/09/17 12:11:13;;;;;;;0.10;0.10;;;;;;;;;;5014702;28;20041;-88
2022/09/17 12:13:47;;;;;;;0.10;0.10;;;;;;;;;;4998393;28;20072;-87
2022/09/17 12:16:26;;;;;;;0.10;0.10;;;;;;;;;;5014772;28;20045;-86
2022/09/17 12:18:52;;;;;;;0.10;0.10;;;;;;;;;;5014670;28;20510;-87
2022/09/17 12:21:19;;;;;;;0.10;0.10;;;;;;;;;;5014711;28;20046;-88
2022/09/17 12:23:48;;;;;;;0.40;0.40;;;;;;;;;;5009151;28;20533;-87
2022/09/17 12:26:17;;;;;;;0.10;0.10;;;;;;;;;;4978679;28;20511;-87
2022/09/17 12:28:48;;;;;;;0.10;0.10;;;;;;;;;;4995040;28;20030;-88
2022/09/17 12:31:18;;;;;;;0.10;0.10;;;;;;;;;;4994674;28;20149;-88
2022/09/17 12:34:07;;;;;;;0.10;0.10;;;;;;;;;;4996826;28;20115;-88
2022/09/17 12:36:55;;;;;;;0.10;0.10;;;;;;;;;;5050373;28;20136;-88
2022/09/17 12:39:36;;;;;;;0.10;0.10;;;;;;;;;;5034070;28;20041;-87
2022/09/17 12:42:17;;;;;;;0.10;0.10;;;;;;;;;;5018366;28;20130;-88
2022/09/17 12:44:46;;;;;;;0.10;0.10;;;;;;;;;;5051813;28;20044;-88
2022/09/17 12:47:12;;;;;;;0.20;0.20;;;;;;;;;;5017326;28;20048;-88
2022/09/17 12:49:38;;;;;;;0.10;0.10;;;;;;;;;;5033836;28;20033;-87
2022/09/17 12:52:06;;;;;;;0.15;0.15;;;;;;;;;;5017644;28;20365;-87
2022/09/17 12:54:38;;;;;;;0.10;0.10;;;;;;;;;;5034052;28;20504;-88
2022/09/17 12:57:23;;;;;;;0.10;0.10;;;;;;;;;;5034074;28;20126;-88
2022/09/17 13:00:12;;;;;;;0.35;0.35;;;;;;;;;;5033777;28;20124;-88
2022/09/17 13:02:51;;;;;;;0.10;0.10;;;;;;;;;;5012096;28;20087;-90
2022/09/17 13:05:22;;;;;;;0.10;0.10;;;;;;;;;;5017164;28;20047;-90
2022/09/17 13:07:53;;;;;;;0.50;0.50;;;;;;;;;;5017018;28;20045;-90
2022/09/17 13:10:38;;;;;;;1.10;0.20;;;;;;;;;;5017302;28;20369;-87
2022/09/17 13:13:16;;;;;;;0.10;0.10;;;;;;;;;;5051387;28;20045;-88
2022/09/17 13:15:46;;;;;;;0.10;0.10;;;;;;;;;;5034251;28;20123;-90
2022/09/17 13:18:14;;;;;;;0.13;0.13;;;;;;;;;;5020763;28;20079;-88
2022/09/17 13:20:48;;;;;;;0.50;0.50;;;;;;;;;;5037263;28;20041;-88
2022/09/17 13:23:14;;;;;;;0.10;0.10;;;;;;;;;;5037273;28;20123;-89
2022/09/17 13:25:52;;;;;;;0.10;0.10;;;;;;;;;;5020719;28;20123;-91
2022/09/17 13:28:18;;;;;;;0.10;0.10;;;;;;;;;;5020955;28;20048;-92
2022/09/17 13:30:54;;;;;;;0.10;0.10;;;;;;;;;;5020917;28;20040;-88
2022/09/17 13:33:42;;;;;;;0.10;0.10;;;;;;;;;;5036885;28;20033;-91
2022/09/17 13:36:28;;;;;;;1.00;0.60;;;;;;;;;;5033363;28;20061;-88
2022/09/17 13:38:54;;;;;;;0.20;0.20;;;;;;;;;;5017073;28;20549;-88
2022/09/17 13:41:20;;;;;;;0.10;0.10;;;;;;;;;;5033394;28;20128;-88
2022/09/17 13:43:46;;;;;;;0.82;0.82;;;;;;;;;;5015839;28;20081;-88
2022/09/17 13:46:14;;;;;;;0.80;0.13;;;;;;;;;;4998233;28;20048;-92
2022/09/17 13:48:44;;;;;;;0.20;0.20;;;;;;;;;;4997664;28;20038;-89
2022/09/17 13:51:29;;;;;;;0.10;0.10;;;;;;;;;;4997544;28;20045;-91
2022/09/17 13:53:55;;;;;;;0.20;0.20;;;;;;;;;;4997473;28;20117;-90
2022/09/17 13:56:30;;;;;;;0.10;0.10;;;;;;;;;;4997998;28;20049;-87
2022/09/17 13:59:02;;;;;;;4.55;0.40;;;;;;;;;;4997487;28;20103;-86
2022/09/17 14:01:49;;;;;;;0.10;0.10;;;;;;;;;;4997134;28;20038;-86
2022/09/17 14:04:34;;;;;;;0.10;0.10;;;;;;;;;;4983606;28;20060;-86
2022/09/17 14:07:00;;;;;;;0.10;0.10;;;;;;;;;;4997641;28;20096;-86
2022/09/17 14:09:29;;;;;;;0.10;0.10;;;;;;;;;;4997362;28;20136;-87
2022/09/17 14:11:55;;;;;;;0.10;0.10;;;;;;;;;;4997192;28;20077;-87
2022/09/17 14:14:27;;;;;;;0.20;0.20;;;;;;;;;;4996881;28;20075;-87
2022/09/17 14:16:53;;;;;;;0.10;0.10;;;;;;;;;;5013620;28;20063;-87
2022/09/17 14:19:21;;;;;;;0.10;0.10;;;;;;;;;;4997015;28;20481;-91
2022/09/17 14:21:58;;;;;;;0.30;0.30;;;;;;;;;;4996714;28;20054;-90
2022/09/17 14:24:35;;;;;;;0.10;0.10;;;;;;;;;;4996784;28;20129;-88
2022/09/17 14:27:14;;;;;;;0.10;0.10;;;;;;;;;;4996801;28;20046;-90
2022/09/17 14:29:42;;;;;;;0.10;0.10;;;;;;;;;;4996864;28;20204;-90
2022/09/17 14:32:11;;;;;;;0.10;0.10;;;;;;;;;;4996981;28;20416;-89
2022/09/17 14:34:37;;;;;;;0.10;0.10;;;;;;;;;;4997849;28;20397;-88
2022/09/17 14:37:03;;;;;;;0.10;0.10;;;;;;;;;;5000058;28;20133;-87
2022/09/17 14:39:30;;;;;;;0.17;0.17;;;;;;;;;;5016502;28;20091;-89
2022/09/17 14:41:55;;;;;;;0.10;0.10;;;;;;;;;;5000076;28;20077;-90
2022/09/17 14:44:22;;;;;;;0.17;0.17;;;;;;;;;;4999789;28;20064;-89
2022/09/17 14:46:48;;;;;;;0.20;0.20;;;;;;;;;;4999951;28;20073;-87
2022/09/17 14:49:19;;;;;;;0.10;0.10;;;;;;;;;;5014380;28;20487;-89
2022/09/17 14:51:46;;;;;;;0.10;0.10;;;;;;;;;;4999695;28;20045;-89
2022/09/17 14:54:15;;;;;;;0.10;0.10;;;;;;;;;;5016243;28;20091;-88
2022/09/17 14:57:02;;;;;;;0.65;0.65;;;;;;;;;;5016378;28;20465;-88